Time;durP1;ratioP1;P1;durP2;ratioP2;P2;SDS_P1;SDS_P2;PMS_P1;PMS_P2;Temp;Humidity;BMP_temperature;BMP_pressure;BME280_temperature;BME280_humidity;BME280_pressure;Samples;Min_cycle;Max_cycle;Signal;HPM_P1;HPM_P2
2021/09/01 00:00:08;;;;;;;0.10;0.10;;;;;;;17.72;84.32;98752.59;4973980;28;20548;-73
2021/09/01 00:02:39;;;;;;;0.10;0.10;;;;;;;17.71;83.89;98756.38;4991534;28;20536;-73
2021/09/01 00:05:06;;;;;;;0.10;0.10;;;;;;;17.67;83.87;98746.13;4970655;28;20065;-73
2021/09/01 00:07:31;;;;;;;0.10;0.10;;;;;;;17.67;84.17;98746.13;4989847;28;20035;-75
2021/09/01 00:09:57;;;;;;;0.15;0.15;;;;;;;17.67;84.00;98751.59;4989825;28;20050;-74
2021/09/01 00:12:23;;;;;;;0.20;0.20;;;;;;;17.64;83.59;98750.13;4991406;28;20046;-73
2021/09/01 00:14:49;;;;;;;0.10;0.10;;;;;;;17.64;83.99;98739.19;4989119;28;20050;-72
2021/09/01 00:17:15;;;;;;;0.13;0.13;;;;;;;17.65;84.28;98737.28;4989682;28;20034;-73
2021/09/01 00:19:40;;;;;;;0.28;0.10;;;;;;;17.66;84.46;98733.47;4957415;28;20042;-71
2021/09/01 00:22:06;;;;;;;0.10;0.10;;;;;;;17.70;84.32;98729.28;4990976;28;20056;-74
2021/09/01 00:24:32;;;;;;;0.10;0.10;;;;;;;17.70;84.66;98724.66;4972611;28;20118;-70
2021/09/01 00:26:58;;;;;;;0.10;0.10;;;;;;;17.65;84.37;98720.88;4990912;28;20370;-72
2021/09/01 00:29:24;;;;;;;0.10;0.10;;;;;;;17.56;84.82;98732.09;4973151;28;20481;-71
2021/09/01 00:31:49;;;;;;;0.10;0.10;;;;;;;17.45;85.28;98732.78;4973124;28;20445;-71
2021/09/01 00:34:15;;;;;;;0.10;0.10;;;;;;;17.41;85.49;98728.81;4973331;28;20078;-71
2021/09/01 00:36:41;;;;;;;0.20;0.20;;;;;;;17.32;85.27;98732.81;4990939;28;20047;-72
2021/09/01 00:39:07;;;;;;;0.10;0.10;;;;;;;17.26;85.95;98712.69;4974058;28;20050;-72
2021/09/01 00:41:33;;;;;;;0.10;0.10;;;;;;;17.22;86.43;98726.97;4991795;28;20057;-72
2021/09/01 00:44:22;;;;;;;0.10;0.10;;;;;;;17.16;86.45;98716.94;4985847;28;20145;-73
2021/09/01 00:46:50;;;;;;;0.10;0.10;;;;;;;17.10;87.03;98711.28;4989382;28;20038;-71
2021/09/01 00:49:15;;;;;;;0.10;0.10;;;;;;;17.03;87.16;98724.13;4991021;28;20050;-71
2021/09/01 00:51:51;;;;;;;0.10;0.10;;;;;;;16.92;88.28;98743.91;4973115;28;20051;-71
2021/09/01 00:54:18;;;;;;;0.10;0.10;;;;;;;16.93;86.23;98723.75;4963984;28;20039;-70
2021/09/01 00:56:48;;;;;;;0.10;0.10;;;;;;;17.03;85.19;98713.19;4970131;28;20051;-73
2021/09/01 00:59:17;;;;;;;0.10;0.10;;;;;;;17.19;82.77;98716.53;4975169;28;20473;-73
2021/09/01 01:01:52;;;;;;;0.10;0.10;;;;;;;17.23;81.84;98702.19;4973640;28;20085;-69
2021/09/01 01:04:19;;;;;;;0.10;0.10;;;;;;;17.32;81.23;98700.03;4957330;28;20097;-71
2021/09/01 01:06:44;;;;;;;0.10;0.10;;;;;;;17.38;80.71;98693.72;4974817;28;20105;-70
2021/09/01 01:09:12;;;;;;;0.13;0.13;;;;;;;17.46;80.74;98688.00;4957310;28;20083;-70
2021/09/01 01:11:56;;;;;;;0.13;0.13;;;;;;;17.35;80.17;98677.75;4957454;28;20082;-73
2021/09/01 01:14:22;;;;;;;0.10;0.10;;;;;;;17.41;79.91;98679.63;4992825;28;20053;-70
2021/09/01 01:16:48;;;;;;;0.10;0.10;;;;;;;17.36;80.04;98673.97;4960853;28;20042;-73
2021/09/01 01:19:16;;;;;;;0.10;0.10;;;;;;;17.39;80.35;98675.44;4977145;28;20165;-72
2021/09/01 01:21:41;;;;;;;0.10;0.10;;;;;;;17.42;80.15;98672.25;4976650;28;20494;-72
2021/09/01 01:24:08;;;;;;;0.10;0.10;;;;;;;17.45;79.91;98672.66;4993813;28;20046;-73
2021/09/01 01:26:33;;;;;;;0.10;0.10;;;;;;;17.45;80.16;98664.47;4960508;28;20053;-72
2021/09/01 01:29:01;;;;;;;0.20;0.20;;;;;;;17.41;80.94;98665.97;4992498;28;20046;-72
2021/09/01 01:31:27;;;;;;;0.10;0.10;;;;;;;17.38;81.35;98658.19;4976352;28;20046;-72
2021/09/01 01:33:53;;;;;;;0.20;0.13;;;;;;;17.36;81.45;98652.09;5008677;28;20514;-71
2021/09/01 01:36:20;;;;;;;0.10;0.10;;;;;;;17.39;80.92;98640.75;5008698;28;20069;-70
2021/09/01 01:38:46;;;;;;;0.10;0.10;;;;;;;17.41;81.32;98633.19;4976102;28;20153;-71
2021/09/01 01:41:12;;;;;;;0.10;0.10;;;;;;;17.39;81.61;98629.81;5008769;28;20220;-71
2021/09/01 01:43:38;;;;;;;0.10;0.10;;;;;;;17.39;80.89;98634.44;4992604;28;20605;-71
2021/09/01 01:46:05;;;;;;;0.22;0.15;;;;;;;17.41;82.46;98621.41;5008928;28;20174;-72
2021/09/01 01:48:35;;;;;;;0.15;0.15;;;;;;;17.38;83.60;98611.75;4976970;28;20409;-71
2021/09/01 01:51:01;;;;;;;0.10;0.10;;;;;;;17.37;82.54;98615.56;4992314;28;20046;-70
2021/09/01 01:53:28;;;;;;;0.10;0.10;;;;;;;17.30;82.38;98614.75;4976353;28;20050;-70
2021/09/01 01:55:54;;;;;;;0.10;0.10;;;;;;;17.25;81.44;98601.72;4993370;28;20046;-71
2021/09/01 01:58:19;;;;;;;0.10;0.10;;;;;;;17.27;81.12;98593.34;4991812;28;20448;-71
2021/09/01 02:00:45;;;;;;;0.13;0.13;;;;;;;17.32;80.49;98585.31;4976985;28;20072;-72
2021/09/01 02:03:11;;;;;;;0.10;0.10;;;;;;;17.37;80.64;98580.03;4993080;28;20362;-71
2021/09/01 02:05:37;;;;;;;0.10;0.10;;;;;;;17.39;80.16;98575.16;4992980;28;20052;-71
2021/09/01 02:08:03;;;;;;;0.10;0.10;;;;;;;17.43;79.93;98570.94;4975358;28;20074;-72
2021/09/01 02:10:29;;;;;;;0.10;0.10;;;;;;;17.42;79.91;98574.72;4991717;28;20046;-71
2021/09/01 02:12:54;;;;;;;0.10;0.10;;;;;;;17.48;79.68;98567.56;4975370;28;20051;-70
2021/09/01 02:15:20;;;;;;;0.10;0.10;;;;;;;17.51;79.38;98562.44;4991804;28;20192;-70
2021/09/01 02:17:46;;;;;;;0.10;0.10;;;;;;;17.54;79.21;98564.75;4992911;28;20125;-70
2021/09/01 02:20:13;;;;;;;0.10;0.10;;;;;;;17.55;79.49;98552.78;4991431;28;20226;-71
2021/09/01 02:22:40;;;;;;;0.10;0.10;;;;;;;17.59;78.96;98558.63;4975475;28;20070;-71
2021/09/01 02:25:07;;;;;;;0.10;0.10;;;;;;;17.59;79.55;98554.00;4991311;28;20521;-71
2021/09/01 02:27:33;;;;;;;0.20;0.20;;;;;;;17.63;82.06;98553.56;4974400;28;20158;-71
2021/09/01 02:29:59;;;;;;;0.20;0.20;;;;;;;17.62;80.92;98551.84;4992795;28;20039;-71
2021/09/01 02:32:25;;;;;;;0.20;0.20;;;;;;;17.57;81.27;98550.63;4992848;28;20057;-71
2021/09/01 02:34:51;;;;;;;0.10;0.10;;;;;;;17.54;82.05;98540.16;4992448;28;20065;-71
2021/09/01 02:37:17;;;;;;;0.10;0.10;;;;;;;17.48;82.07;98532.84;4992216;28;20057;-72
2021/09/01 02:39:43;;;;;;;0.20;0.20;;;;;;;17.50;81.83;98544.38;4955948;28;20145;-70
2021/09/01 02:42:09;;;;;;;0.10;0.10;;;;;;;17.51;82.26;98546.06;4973069;28;20058;-71
2021/09/01 02:44:35;;;;;;;0.10;0.10;;;;;;;17.43;83.57;98540.03;4955619;28;20077;-71
2021/09/01 02:47:01;;;;;;;0.20;0.20;;;;;;;17.40;84.21;98544.03;4955230;28;20478;-72
2021/09/01 02:49:26;;;;;;;0.10;0.10;;;;;;;17.42;83.90;98544.66;4973127;28;20049;-71
2021/09/01 02:51:52;;;;;;;0.10;0.10;;;;;;;17.44;83.67;98542.56;4955325;28;20054;-71
2021/09/01 02:54:18;;;;;;;0.10;0.10;;;;;;;17.40;84.17;98543.22;4955199;28;20152;-71
2021/09/01 02:56:44;;;;;;;0.10;0.10;;;;;;;17.29;83.76;98545.59;4958497;28;20134;-71
2021/09/01 02:59:09;;;;;;;0.10;0.10;;;;;;;17.20;84.68;98533.28;4993472;28;20053;-71
2021/09/01 03:01:35;;;;;;;0.10;0.10;;;;;;;17.22;84.74;98535.78;4994332;28;20516;-73
2021/09/01 03:04:01;;;;;;;0.10;0.10;;;;;;;17.19;85.29;98528.88;4977706;28;20045;-73
2021/09/01 03:06:27;;;;;;;0.20;0.20;;;;;;;17.22;84.73;98530.31;4994146;28;20176;-73
2021/09/01 03:08:52;;;;;;;0.10;0.10;;;;;;;17.30;84.71;98510.94;4959252;28;20152;-73
2021/09/01 03:11:18;;;;;;;0.17;0.17;;;;;;;17.34;85.17;98506.72;4991878;28;20050;-73
2021/09/01 03:13:47;;;;;;;0.17;0.17;;;;;;;17.33;84.57;98500.41;4973969;28;20042;-71
2021/09/01 03:16:13;;;;;;;0.10;0.10;;;;;;;17.23;85.03;98493.78;4992071;28;20490;-73
2021/09/01 03:18:39;;;;;;;0.10;0.10;;;;;;;17.22;85.07;98497.53;4990557;28;20042;-72
2021/09/01 03:21:05;;;;;;;0.20;0.20;;;;;;;17.23;83.55;98488.31;4973324;28;20042;-73
2021/09/01 03:23:32;;;;;;;0.10;0.10;;;;;;;17.29;82.93;98492.88;4974054;28;20044;-73
2021/09/01 03:25:57;;;;;;;0.10;0.10;;;;;;;17.30;82.43;98500.03;4984370;28;20054;-71
2021/09/01 03:28:23;;;;;;;0.10;0.10;;;;;;;17.31;82.15;98493.50;4955124;28;20043;-75
2021/09/01 03:30:49;;;;;;;0.10;0.10;;;;;;;17.36;82.88;98499.09;4970767;28;20591;-75
2021/09/01 03:33:15;;;;;;;0.10;0.10;;;;;;;17.36;81.98;98488.19;4954376;28;20057;-73
2021/09/01 03:35:41;;;;;;;0.20;0.20;;;;;;;17.42;82.43;98492.75;4972798;28;20133;-74
2021/09/01 03:38:06;;;;;;;0.20;0.20;;;;;;;17.43;81.95;98485.41;4957721;28;20441;-70
2021/09/01 03:40:32;;;;;;;0.10;0.10;;;;;;;17.45;81.29;98477.81;4974205;28;20050;-73
2021/09/01 03:42:58;;;;;;;0.10;0.10;;;;;;;17.44;79.78;98485.19;4973946;28;20042;-74
2021/09/01 03:45:24;;;;;;;0.20;0.20;;;;;;;17.52;79.82;98484.06;4957262;28;20042;-74
2021/09/01 03:47:49;;;;;;;0.10;0.10;;;;;;;17.59;79.81;98482.94;4955167;28;20057;-75
2021/09/01 03:50:15;;;;;;;0.10;0.10;;;;;;;17.64;78.03;98482.25;4954502;28;20051;-72
2021/09/01 03:52:41;;;;;;;0.10;0.10;;;;;;;17.75;78.21;98481.53;4971363;28;20471;-74
2021/09/01 03:55:08;;;;;;;0.10;0.10;;;;;;;17.77;80.71;98476.69;4971625;28;20061;-74
2021/09/01 03:57:35;;;;;;;0.20;0.20;;;;;;;17.80;81.59;98478.94;4988542;28;20038;-73
2021/09/01 04:00:04;;;;;;;0.10;0.10;;;;;;;17.80;82.24;98475.38;4957720;28;20058;-72
2021/09/01 04:02:38;;;;;;;0.10;0.10;;;;;;;17.65;84.11;98469.41;4991159;28;20137;-73
2021/09/01 04:05:04;;;;;;;0.10;0.10;;;;;;;17.46;84.33;98476.75;4973192;28;20167;-73
2021/09/01 04:07:30;;;;;;;0.10;0.10;;;;;;;17.37;81.61;98484.41;4972702;28;20501;-72
2021/09/01 04:09:56;;;;;;;0.10;0.10;;;;;;;17.31;82.00;98477.09;4989458;28;20050;-71
2021/09/01 04:12:22;;;;;;;0.10;0.10;;;;;;;17.37;82.02;98473.47;4990910;28;20386;-72
2021/09/01 04:14:47;;;;;;;0.10;0.10;;;;;;;17.27;82.05;98473.16;4989636;28;20410;-73
2021/09/01 04:17:14;;;;;;;0.10;0.10;;;;;;;17.10;82.84;98473.69;4973156;28;20046;-75
2021/09/01 04:19:39;;;;;;;0.10;0.10;;;;;;;16.95;83.20;98470.44;4973477;28;20087;-71
2021/09/01 04:22:05;;;;;;;0.10;0.10;;;;;;;16.90;83.57;98469.47;4989503;28;20061;-74
2021/09/01 04:24:31;;;;;;;0.10;0.10;;;;;;;17.01;82.90;98466.84;4973102;28;20042;-74
2021/09/01 04:26:57;;;;;;;0.20;0.20;;;;;;;17.11;82.67;98458.13;4975117;28;20054;-79
2021/09/01 04:29:23;;;;;;;0.10;0.10;;;;;;;17.17;81.79;98453.69;4989549;28;20482;-72
2021/09/01 04:31:48;;;;;;;0.10;0.10;;;;;;;17.09;82.25;98452.91;4959721;28;20418;-73
2021/09/01 04:34:14;;;;;;;0.20;0.20;;;;;;;17.15;81.45;98458.53;4976230;28;20045;-74
2021/09/01 04:36:40;;;;;;;0.10;0.10;;;;;;;17.21;82.46;98449.44;4993624;28;20054;-74
2021/09/01 04:39:06;;;;;;;0.13;0.13;;;;;;;17.26;81.83;98457.81;4988875;28;20054;-74
2021/09/01 04:41:31;;;;;;;0.10;0.10;;;;;;;17.25;82.77;98453.41;4971189;28;20065;-74
2021/09/01 04:43:57;;;;;;;0.20;0.20;;;;;;;17.30;82.60;98439.94;4971432;28;20193;-73
2021/09/01 04:46:23;;;;;;;0.10;0.10;;;;;;;17.40;83.26;98444.84;4971120;28;20050;-72
2021/09/01 04:48:49;;;;;;;0.20;0.20;;;;;;;17.37;84.15;98451.63;4971678;28;20138;-75
2021/09/01 04:51:16;;;;;;;0.10;0.10;;;;;;;17.46;84.05;98442.06;4972978;28;20046;-72
2021/09/01 04:53:42;;;;;;;0.20;0.20;;;;;;;17.55;83.59;98443.47;4973313;28;20556;-73
2021/09/01 04:56:07;;;;;;;0.20;0.20;;;;;;;17.54;83.09;98435.47;4956961;28;20050;-73
2021/09/01 04:58:33;;;;;;;0.20;0.20;;;;;;;17.75;81.46;98423.25;4973694;28;20092;-75
2021/09/01 05:00:59;;;;;;;0.10;0.10;;;;;;;17.63;81.83;98438.75;4973641;28;20046;-73
2021/09/01 05:03:25;;;;;;;0.20;0.20;;;;;;;17.68;81.90;98425.25;4974370;28;20415;-73
2021/09/01 05:05:51;;;;;;;0.20;0.20;;;;;;;17.65;81.17;98425.69;4972791;28;20084;-74
2021/09/01 05:08:16;;;;;;;0.10;0.10;;;;;;;17.73;79.87;98425.38;4957847;28;20141;-74
2021/09/01 05:10:42;;;;;;;0.10;0.10;;;;;;;17.62;78.46;98413.31;4973400;28;20550;-73
2021/09/01 05:13:08;;;;;;;0.10;0.10;;;;;;;17.67;78.71;98412.63;4973523;28;20050;-74
2021/09/01 05:15:34;;;;;;;0.10;0.10;;;;;;;17.75;76.42;98393.19;4973512;28;20050;-73
2021/09/01 05:18:00;;;;;;;0.20;0.20;;;;;;;17.74;77.94;98391.53;4957354;28;20050;-73
2021/09/01 05:20:25;;;;;;;0.10;0.10;;;;;;;17.79;77.19;98398.00;4973142;28;20131;-73
2021/09/01 05:22:59;;;;;;;0.20;0.20;;;;;;;17.81;77.71;98392.31;4956863;28;20057;-74
2021/09/01 05:25:29;;;;;;;0.10;0.10;;;;;;;17.69;79.02;98394.09;4971609;28;20505;-74
2021/09/01 05:27:56;;;;;;;0.10;0.10;;;;;;;17.69;79.25;98383.16;4973211;28;20085;-73
2021/09/01 05:30:22;;;;;;;0.20;0.20;;;;;;;17.52;80.37;98391.97;4990504;28;20050;-73
2021/09/01 05:32:49;;;;;;;0.10;0.10;;;;;;;17.47;80.85;98391.81;4973164;28;20049;-74
2021/09/01 05:35:16;;;;;;;0.20;0.20;;;;;;;17.40;82.10;98401.97;4973093;28;20051;-72
2021/09/01 05:37:42;;;;;;;0.10;0.10;;;;;;;17.33;82.94;98393.00;4988667;28;20447;-75
2021/09/01 05:40:10;;;;;;;0.10;0.10;;;;;;;17.41;83.90;98390.00;4988688;28;20173;-73
2021/09/01 05:42:36;;;;;;;0.15;0.15;;;;;;;17.28;84.26;98390.97;4953372;28;20493;-72
2021/09/01 05:45:05;;;;;;;0.15;0.15;;;;;;;17.30;84.19;98390.75;4971567;28;20073;-74
2021/09/01 05:47:31;;;;;;;0.20;0.20;;;;;;;17.34;84.20;98373.69;4941512;28;20042;-73
2021/09/01 05:49:57;;;;;;;0.20;0.20;;;;;;;17.30;83.31;98380.66;4941226;28;20421;-72
2021/09/01 05:52:24;;;;;;;0.10;0.10;;;;;;;17.45;82.62;98374.81;4942946;28;20477;-72
2021/09/01 05:54:51;;;;;;;0.20;0.20;;;;;;;17.51;82.21;98365.69;4956551;28;20043;-74
2021/09/01 05:57:41;;;;;;;0.20;0.20;;;;;;;17.60;82.05;98364.34;4972841;28;20424;-74
2021/09/01 06:00:13;;;;;;;0.20;0.20;;;;;;;17.59;82.41;98361.84;4956371;28;20059;-73
2021/09/01 06:02:38;;;;;;;0.20;0.20;;;;;;;17.65;82.87;98360.09;4975204;28;20050;-72
2021/09/01 06:05:06;;;;;;;0.20;0.20;;;;;;;17.71;81.24;98353.72;4975915;28;20057;-76
2021/09/01 06:07:33;;;;;;;0.10;0.10;;;;;;;17.69;80.66;98350.38;4992406;28;20054;-72
2021/09/01 06:10:00;;;;;;;0.20;0.20;;;;;;;17.73;79.98;98351.56;4992059;28;20125;-72
2021/09/01 06:12:28;;;;;;;0.20;0.20;;;;;;;17.83;79.47;98335.50;4975167;28;20043;-73
2021/09/01 06:14:54;;;;;;;0.20;0.20;;;;;;;18.01;79.47;98343.66;4975471;28;20084;-72
2021/09/01 06:17:20;;;;;;;0.20;0.20;;;;;;;18.12;78.88;98338.47;4975806;28;20125;-73
2021/09/01 06:19:46;;;;;;;0.20;0.20;;;;;;;18.20;78.27;98351.81;4975391;28;20548;-72
2021/09/01 06:22:13;;;;;;;0.20;0.20;;;;;;;18.21;77.51;98337.06;4959091;28;20042;-72
2021/09/01 06:24:39;;;;;;;0.20;0.20;;;;;;;18.45;77.27;98325.13;4975112;28;20042;-74
2021/09/01 06:27:05;;;;;;;0.20;0.20;;;;;;;18.40;77.06;98325.00;4975815;28;20534;-75
2021/09/01 06:29:31;;;;;;;0.20;0.20;;;;;;;18.34;77.11;98325.94;4959569;28;20085;-74
2021/09/01 06:31:58;;;;;;;0.17;0.17;;;;;;;18.33;77.54;98335.22;4975696;28;20058;-74
2021/09/01 06:34:24;;;;;;;0.20;0.20;;;;;;;18.46;77.58;98317.75;4945160;28;20446;-74
2021/09/01 06:36:51;;;;;;;0.20;0.20;;;;;;;18.33;77.98;98313.34;4956268;28;20046;-74
2021/09/01 06:39:16;;;;;;;0.20;0.20;;;;;;;18.30;78.56;98320.09;4956101;28;20116;-74
2021/09/01 06:41:42;;;;;;;0.20;0.20;;;;;;;18.21;78.99;98312.44;4940183;28;20051;-73
2021/09/01 06:44:08;;;;;;;0.20;0.20;;;;;;;18.19;79.07;98317.34;4971765;28;20097;-74
2021/09/01 06:46:34;;;;;;;0.20;0.20;;;;;;;18.28;78.82;98310.44;4972481;28;20062;-74
2021/09/01 06:49:00;;;;;;;0.20;0.20;;;;;;;18.31;78.46;98310.81;4955981;28;20050;-74
2021/09/01 06:51:26;;;;;;;0.20;0.20;;;;;;;18.36;78.20;98312.88;4971725;28;20126;-73
2021/09/01 06:53:52;;;;;;;0.20;0.20;;;;;;;18.23;77.10;98302.94;4972006;28;20054;-74
2021/09/01 06:56:19;;;;;;;0.17;0.17;;;;;;;18.34;77.24;98293.09;4988287;28;20081;-74
2021/09/01 06:58:46;;;;;;;0.10;0.10;;;;;;;18.28;77.07;98294.03;4987928;28;20049;-74
2021/09/01 07:01:12;;;;;;;0.10;0.10;;;;;;;18.23;78.01;98302.13;4988206;28;20097;-73
2021/09/01 07:03:38;;;;;;;0.10;0.10;;;;;;;18.12;78.58;98297.47;4940247;28;20047;-75
2021/09/01 07:06:04;;;;;;;0.10;0.10;;;;;;;18.10;78.19;98291.38;4988307;28;20658;-75
2021/09/01 07:08:30;;;;;;;0.10;0.10;;;;;;;18.16;78.09;98295.91;4971898;28;20553;-74
2021/09/01 07:10:56;;;;;;;0.10;0.10;;;;;;;18.12;78.47;98291.97;4973581;28;20462;-73
2021/09/01 07:13:22;;;;;;;0.20;0.20;;;;;;;18.06;79.00;98297.34;4958968;28;20050;-73
2021/09/01 07:15:48;;;;;;;0.10;0.10;;;;;;;18.08;78.84;98286.97;4975185;28;20050;-75
2021/09/01 07:18:14;;;;;;;0.20;0.20;;;;;;;18.11;78.63;98288.41;4974586;28;20073;-73
2021/09/01 07:20:41;;;;;;;0.20;0.20;;;;;;;18.14;78.64;98287.13;4992046;28;20402;-72
2021/09/01 07:23:07;;;;;;;0.20;0.20;;;;;;;18.12;78.04;98270.09;4990690;28;20046;-74
2021/09/01 07:25:33;;;;;;;0.20;0.20;;;;;;;18.14;78.51;98270.72;4990857;28;20253;-74
2021/09/01 07:28:01;;;;;;;0.20;0.20;;;;;;;18.23;78.33;98269.28;4974826;28;20145;-74
2021/09/01 07:30:26;;;;;;;0.20;0.20;;;;;;;18.25;77.68;98261.69;4978229;28;20062;-74
2021/09/01 07:32:52;;;;;;;0.20;0.20;;;;;;;18.48;77.46;98258.16;4955257;28;20413;-75
2021/09/01 07:35:19;;;;;;;0.20;0.20;;;;;;;18.75;76.30;98255.81;4955555;28;20096;-74
2021/09/01 07:37:47;;;;;;;0.20;0.20;;;;;;;18.98;75.21;98250.34;4940623;28;20050;-74
2021/09/01 07:40:15;;;;;;;0.20;0.20;;;;;;;18.96;74.71;98247.00;4965598;28;20116;-74
2021/09/01 07:42:42;;;;;;;0.20;0.20;;;;;;;19.10;74.16;98253.06;4976051;28;20046;-74
2021/09/01 07:45:09;;;;;;;0.20;0.20;;;;;;;19.19;74.19;98253.50;4976280;28;20046;-75
2021/09/01 07:47:35;;;;;;;0.20;0.20;;;;;;;19.04;73.98;98254.84;4976004;28;20050;-74
2021/09/01 07:50:01;;;;;;;0.20;0.20;;;;;;;19.25;72.94;98244.31;4957680;28;20057;-74
2021/09/01 07:52:27;;;;;;;0.20;0.20;;;;;;;19.17;73.47;98247.44;4990897;28;20065;-74
2021/09/01 07:54:53;;;;;;;0.20;0.20;;;;;;;19.28;72.89;98252.06;4974386;28;20050;-74
2021/09/01 07:57:19;;;;;;;0.20;0.20;;;;;;;19.19;73.39;98245.28;4975087;28;20110;-74
2021/09/01 07:59:44;;;;;;;0.20;0.20;;;;;;;19.29;72.99;98242.75;4926259;28;20498;-74
2021/09/01 08:02:10;;;;;;;0.20;0.20;;;;;;;19.26;73.60;98254.19;4976048;28;20548;-73
2021/09/01 08:04:36;;;;;;;0.20;0.20;;;;;;;19.09;72.96;98242.34;4961041;28;20080;-75
2021/09/01 08:07:02;;;;;;;0.10;0.10;;;;;;;19.37;71.95;98236.06;4976973;28;20050;-75
2021/09/01 08:09:28;;;;;;;0.10;0.10;;;;;;;19.38;72.07;98230.34;4978017;28;20089;-74
2021/09/01 08:11:54;;;;;;;0.20;0.20;;;;;;;19.30;71.78;98225.25;4977375;28;20149;-75
2021/09/01 08:14:20;;;;;;;0.10;0.10;;;;;;;19.44;71.53;98226.63;4995671;28;20456;-74
2021/09/01 08:16:46;;;;;;;0.10;0.10;;;;;;;19.56;71.49;98223.84;4978319;28;20042;-75
2021/09/01 08:19:12;;;;;;;0.10;0.10;;;;;;;19.67;71.75;98224.91;4978476;28;20050;-74
2021/09/01 08:21:37;;;;;;;0.10;0.10;;;;;;;19.74;71.34;98217.34;4978898;28;20050;-74
2021/09/01 08:24:04;;;;;;;0.20;0.20;;;;;;;19.68;71.26;98226.59;4978438;28;20425;-73
2021/09/01 08:26:29;;;;;;;0.10;0.10;;;;;;;19.62;70.95;98224.78;4978226;28;20462;-72
2021/09/01 08:28:55;;;;;;;0.10;0.10;;;;;;;19.45;71.96;98211.88;4977122;28;20046;-76
2021/09/01 08:31:21;;;;;;;0.17;0.17;;;;;;;19.41;71.68;98216.16;4976782;28;20061;-74
2021/09/01 08:33:47;;;;;;;0.20;0.20;;;;;;;19.42;71.87;98217.84;4977292;28;20049;-74
2021/09/01 08:36:13;;;;;;;0.13;0.13;;;;;;;19.32;71.94;98217.63;4978460;28;20050;-78
2021/09/01 08:38:39;;;;;;;0.10;0.10;;;;;;;19.26;72.17;98224.06;4978522;28;20049;-74
2021/09/01 08:41:04;;;;;;;0.10;0.10;;;;;;;19.19;73.03;98228.84;4977706;28;20121;-73
2021/09/01 08:43:30;;;;;;;0.15;0.15;;;;;;;19.21;73.00;98232.19;4977454;28;20577;-75
2021/09/01 08:46:01;;;;;;;0.10;0.10;;;;;;;19.11;73.33;98227.31;4977402;28;20058;-74
2021/09/01 08:48:27;;;;;;;0.10;0.10;;;;;;;19.16;73.15;98229.31;4976106;28;20133;-73
2021/09/01 08:50:54;;;;;;;0.20;0.20;;;;;;;19.38;72.18;98227.63;4973936;28;20050;-74
2021/09/01 08:53:19;;;;;;;0.20;0.20;;;;;;;19.63;72.05;98229.22;4957837;28;20072;-74
2021/09/01 08:55:51;;;;;;;0.20;0.20;;;;;;;19.71;71.66;98231.59;4974104;28;20068;-74
2021/09/01 08:58:17;;;;;;;0.20;0.20;;;;;;;19.78;72.11;98232.25;4969839;28;20044;-73
2021/09/01 09:00:43;;;;;;;0.20;0.20;;;;;;;19.89;73.16;98223.16;4970327;28;20054;-74
2021/09/01 09:03:09;;;;;;;0.20;0.20;;;;;;;19.93;71.83;98213.34;4954201;28;20042;-73
2021/09/01 09:05:37;;;;;;;0.20;0.20;;;;;;;20.18;71.67;98203.88;4970033;28;20054;-74
2021/09/01 09:08:04;;;;;;;0.20;0.20;;;;;;;20.66;70.89;98202.50;4972894;28;20153;-74
2021/09/01 09:10:36;;;;;;;0.20;0.20;;;;;;;20.92;69.44;98199.00;4957309;28;20046;-75
2021/09/01 09:13:10;;;;;;;0.20;0.20;;;;;;;21.26;68.19;98193.38;4973810;28;20445;-75
2021/09/01 09:15:37;;;;;;;0.20;0.20;;;;;;;21.49;67.92;98207.97;4973495;28;20094;-75
2021/09/01 09:18:04;;;;;;;0.20;0.20;;;;;;;21.79;68.12;98208.34;4973432;28;20050;-74
2021/09/01 09:20:32;;;;;;;0.20;0.20;;;;;;;21.89;65.78;98210.34;4976141;28;20137;-75
2021/09/01 09:22:59;;;;;;;0.20;0.20;;;;;;;22.14;64.13;98210.59;4960878;28;20069;-74
2021/09/01 09:25:31;;;;;;;0.20;0.20;;;;;;;22.39;63.33;98212.75;4977267;28;20532;-74
2021/09/01 09:28:07;;;;;;;0.20;0.20;;;;;;;22.69;61.81;98211.31;4961782;28;20854;-75
2021/09/01 09:30:42;;;;;;;0.28;0.28;;;;;;;23.07;61.12;98198.31;4961304;28;20460;-74
2021/09/01 09:33:11;;;;;;;0.20;0.20;;;;;;;23.56;59.14;98198.00;4977589;28;20130;-74
2021/09/01 09:35:59;;;;;;;0.95;0.95;;;;;;;25.10;57.06;98194.19;4978907;28;20057;-74
2021/09/01 09:38:29;;;;;;;0.30;0.30;;;;;;;26.31;53.27;98198.53;4977399;28;20046;-74
2021/09/01 09:40:55;;;;;;;0.30;0.30;;;;;;;26.36;51.56;98204.84;4960105;28;20050;-73
2021/09/01 09:43:23;;;;;;;0.30;0.30;;;;;;;26.66;49.99;98195.47;4977108;28;20054;-74
2021/09/01 09:45:58;;;;;;;0.20;0.20;;;;;;;26.55;48.40;98191.13;4972814;28;20073;-74
2021/09/01 09:48:31;;;;;;;0.20;0.20;;;;;;;26.28;48.91;98190.78;4957653;28;20096;-74
2021/09/01 09:50:58;;;;;;;0.20;0.20;;;;;;;25.19;52.15;98192.50;4975073;28;20133;-74
2021/09/01 09:53:45;;;;;;;0.20;0.20;;;;;;;25.60;51.25;98192.31;4989234;28;20145;-75
2021/09/01 09:56:14;;;;;;;0.20;0.20;;;;;;;24.85;52.86;98180.41;4956477;28;20736;-74
2021/09/01 09:58:48;;;;;;;0.10;0.10;;;;;;;24.73;53.11;98181.53;4956817;28;20105;-74
2021/09/01 10:01:16;;;;;;;0.10;0.10;;;;;;;24.41;53.70;98186.56;4957036;28;20494;-74
2021/09/01 10:03:42;;;;;;;0.10;0.10;;;;;;;24.15;53.63;98182.94;4973088;28;20129;-74
2021/09/01 10:06:10;;;;;;;0.20;0.20;;;;;;;24.17;54.13;98187.09;4962973;28;20049;-73
2021/09/01 10:08:37;;;;;;;0.20;0.20;;;;;;;24.27;54.26;98184.31;4993752;28;20593;-74
2021/09/01 10:11:09;;;;;;;0.20;0.20;;;;;;;24.22;53.96;98189.84;4976383;28;20050;-74
2021/09/01 10:13:39;;;;;;;0.20;0.20;;;;;;;24.32;53.54;98193.72;4960050;28;20508;-75
2021/09/01 10:16:09;;;;;;;0.30;0.30;;;;;;;24.33;53.31;98184.31;4992027;28;20069;-73
2021/09/01 10:18:37;;;;;;;0.20;0.20;;;;;;;24.33;53.17;98181.56;4975751;28;20058;-74
2021/09/01 10:21:04;;;;;;;0.20;0.20;;;;;;;24.53;51.97;98165.84;4959718;28;20054;-74
2021/09/01 10:23:40;;;;;;;0.20;0.20;;;;;;;24.43;51.34;98173.31;4975824;28;20117;-74
2021/09/01 10:26:26;;;;;;;0.20;0.20;;;;;;;24.36;50.75;98167.19;4975421;28;20419;-75
2021/09/01 10:28:53;;;;;;;0.30;0.30;;;;;;;24.75;50.80;98148.94;4992866;28;20054;-73
2021/09/01 10:31:21;;;;;;;0.30;0.30;;;;;;;25.03;50.32;98143.84;4958832;28;20043;-74
2021/09/01 10:33:55;;;;;;;0.20;0.20;;;;;;;24.98;49.19;98143.88;4975594;28;20532;-74
2021/09/01 10:36:24;;;;;;;0.20;0.20;;;;;;;24.37;49.24;98146.75;4955629;28;20507;-74
2021/09/01 10:38:53;;;;;;;0.20;0.20;;;;;;;24.30;49.27;98136.81;4972835;28;20050;-74
2021/09/01 10:41:30;;;;;;;0.20;0.20;;;;;;;24.40;49.48;98143.47;4972378;28;20047;-75
2021/09/01 10:44:18;;;;;;;0.20;0.20;;;;;;;24.48;48.72;98138.19;4956254;28;20051;-74
2021/09/01 10:46:50;;;;;;;0.20;0.20;;;;;;;24.67;48.64;98141.19;4973315;28;20109;-74
2021/09/01 10:49:26;;;;;;;0.10;0.10;;;;;;;23.82;50.77;98136.25;4973539;28;20387;-74
2021/09/01 10:51:54;;;;;;;0.20;0.20;;;;;;;23.75;51.77;98146.72;4971701;28;20308;-74
2021/09/01 10:54:29;;;;;;;0.20;0.20;;;;;;;23.72;51.92;98151.97;4956012;28;20069;-74
2021/09/01 10:56:55;;;;;;;0.10;0.10;;;;;;;23.56;53.24;98153.84;4955787;28;20057;-73
2021/09/01 10:59:29;;;;;;;0.10;0.10;;;;;;;23.14;54.24;98157.56;4955601;28;20047;-73
2021/09/01 11:02:15;;;;;;;0.10;0.10;;;;;;;22.32;56.72;98168.09;4971806;28;20043;-73
2021/09/01 11:04:53;;;;;;;0.10;0.10;;;;;;;21.90;58.67;98168.81;4975002;28;20585;-75
2021/09/01 11:07:26;;;;;;;0.10;0.10;;;;;;;21.53;59.47;98170.63;4991191;28;20061;-73
2021/09/01 11:09:56;;;;;;;;;;;;;;;21.41;59.96;98174.34;4993052;28;20046;-73
2021/09/01 11:12:22;;;;;;;0.10;0.10;;;;;;;;;;4990940;28;19926;-74
2021/09/01 11:14:50;;;;;;;0.10;0.10;;;;;;;21.18;61.13;98166.38;4974504;28;20049;-74
2021/09/01 11:17:18;;;;;;;0.10;0.10;;;;;;;21.11;61.31;98157.47;4991085;28;20042;-74
2021/09/01 11:19:50;;;;;;;0.20;0.20;;;;;;;21.18;61.23;98161.69;4974549;28;20108;-74
2021/09/01 11:22:19;;;;;;;0.10;0.10;;;;;;;21.16;61.53;98157.53;4958622;28;20073;-74
2021/09/01 11:24:53;;;;;;;0.10;0.10;;;;;;;21.03;62.42;98155.19;4992515;28;20078;-74
2021/09/01 11:27:21;;;;;;;0.10;0.10;;;;;;;20.66;62.72;98153.06;4975245;28;20069;-74
2021/09/01 11:29:47;;;;;;;0.10;0.10;;;;;;;20.48;63.30;98160.44;4958436;28;20517;-73
2021/09/01 11:32:18;;;;;;;0.10;0.10;;;;;;;20.48;63.42;98154.97;4990456;28;20050;-74
2021/09/01 11:34:44;;;;;;;0.10;0.10;;;;;;;20.38;63.98;98159.47;4942259;28;20121;-74